sensor_id;sensor_type;location;lat;lon;timestamp;temperature;humidity
11474;DHT22;5793;52.238;13.438;2022-07-29T00:02:06;13.60;99.90
11474;DHT22;5793;52.238;13.438;2022-07-29T00:04:34;13.60;99.90
11474;DHT22;5793;52.238;13.438;2022-07-29T00:07:02;13.60;99.90
11474;DHT22;5793;52.238;13.438;2022-07-29T00:09:30;13.60;99.90
11474;DHT22;5793;52.238;13.438;2022-07-29T00:12:00;13.60;99.90
11474;DHT22;5793;52.238;13.438;2022-07-29T00:14:28;13.60;99.90
11474;DHT22;5793;52.238;13.438;2022-07-29T00:16:56;13.60;99.90
11474;DHT22;5793;52.238;13.438;2022-07-29T00:19:24;13.50;99.90
11474;DHT22;5793;52.238;13.438;2022-07-29T00:21:52;13.50;99.90
11474;DHT22;5793;52.238;13.438;2022-07-29T00:24:20;13.40;99.90
11474;DHT22;5793;52.238;13.438;2022-07-29T00:26:48;13.40;99.90
11474;DHT22;5793;52.238;13.438;2022-07-29T00:29:17;13.40;99.90
11474;DHT22;5793;52.238;13.438;2022-07-29T00:32:01;13.40;99.90
11474;DHT22;5793;52.238;13.438;2022-07-29T00:34:29;13.50;99.90
11474;DHT22;5793;52.238;13.438;2022-07-29T00:37:14;13.50;99.90
11474;DHT22;5793;52.238;13.438;2022-07-29T00:39:42;13.50;99.90
11474;DHT22;5793;52.238;13.438;2022-07-29T00:42:10;13.50;99.90
11474;DHT22;5793;52.238;13.438;2022-07-29T00:44:40;13.50;99.90
11474;DHT22;5793;52.238;13.438;2022-07-29T00:47:09;13.40;99.90
11474;DHT22;5793;52.238;13.438;2022-07-29T00:49:39;13.30;99.90
11474;DHT22;5793;52.238;13.438;2022-07-29T00:52:09;13.30;99.90
11474;DHT22;5793;52.238;13.438;2022-07-29T00:54:38;13.30;99.90
11474;DHT22;5793;52.238;13.438;2022-07-29T00:57:11;13.30;99.90
11474;DHT22;5793;52.238;13.438;2022-07-29T00:59:40;13.20;99.90
11474;DHT22;5793;52.238;13.438;2022-07-29T01:02:08;13.20;99.90
11474;DHT22;5793;52.238;13.438;2022-07-29T01:04:36;13.00;99.90
11474;DHT22;5793;52.238;13.438;2022-07-29T01:07:04;13.00;99.90
11474;DHT22;5793;52.238;13.438;2022-07-29T01:09:32;13.10;99.90
11474;DHT22;5793;52.238;13.438;2022-07-29T01:12:13;13.10;99.90
11474;DHT22;5793;52.238;13.438;2022-07-29T01:14:44;13.10;99.90
11474;DHT22;5793;52.238;13.438;2022-07-29T01:17:19;13.10;99.90
11474;DHT22;5793;52.238;13.438;2022-07-29T01:19:53;13.10;99.90
11474;DHT22;5793;52.238;13.438;2022-07-29T01:22:28;13.00;99.90
11474;DHT22;5793;52.238;13.438;2022-07-29T01:25:10;13.00;99.90
11474;DHT22;5793;52.238;13.438;2022-07-29T01:27:51;13.00;99.90
11474;DHT22;5793;52.238;13.438;2022-07-29T01:30:30;12.80;99.90
11474;DHT22;5793;52.238;13.438;2022-07-29T01:33:03;12.90;99.90
11474;DHT22;5793;52.238;13.438;2022-07-29T01:35:37;12.90;99.90
11474;DHT22;5793;52.238;13.438;2022-07-29T01:38:09;12.90;99.90
11474;DHT22;5793;52.238;13.438;2022-07-29T01:40:42;12.90;99.90
11474;DHT22;5793;52.238;13.438;2022-07-29T01:43:14;12.80;99.90
11474;DHT22;5793;52.238;13.438;2022-07-29T01:45:48;12.70;99.90
11474;DHT22;5793;52.238;13.438;2022-07-29T01:48:21;12.80;99.90
11474;DHT22;5793;52.238;13.438;2022-07-29T01:50:52;12.80;99.90
11474;DHT22;5793;52.238;13.438;2022-07-29T01:53:31;12.80;99.90
11474;DHT22;5793;52.238;13.438;2022-07-29T01:56:04;12.80;99.90
11474;DHT22;5793;52.238;13.438;2022-07-29T01:58:35;12.80;99.90
11474;DHT22;5793;52.238;13.438;2022-07-29T02:01:07;12.80;99.90
11474;DHT22;5793;52.238;13.438;2022-07-29T02:03:38;12.80;99.90
11474;DHT22;5793;52.238;13.438;2022-07-29T02:06:07;12.80;99.90
11474;DHT22;5793;52.238;13.438;2022-07-29T02:08:38;12.80;99.90
11474;DHT22;5793;52.238;13.438;2022-07-29T02:11:07;12.80;99.90
11474;DHT22;5793;52.238;13.438;2022-07-29T02:13:36;12.90;99.90
11474;DHT22;5793;52.238;13.438;2022-07-29T02:16:08;12.90;99.90
11474;DHT22;5793;52.238;13.438;2022-07-29T02:18:39;12.80;99.90
11474;DHT22;5793;52.238;13.438;2022-07-29T02:21:09;12.80;99.90
11474;DHT22;5793;52.238;13.438;2022-07-29T02:23:42;12.70;99.90
11474;DHT22;5793;52.238;13.438;2022-07-29T02:26:18;12.70;99.90
11474;DHT22;5793;52.238;13.438;2022-07-29T02:28:47;12.80;99.90
11474;DHT22;5793;52.238;13.438;2022-07-29T02:31:19;12.80;99.90
11474;DHT22;5793;52.238;13.438;2022-07-29T02:33:48;12.80;99.90
11474;DHT22;5793;52.238;13.438;2022-07-29T02:36:21;12.80;99.90
11474;DHT22;5793;52.238;13.438;2022-07-29T02:38:50;12.80;99.90
11474;DHT22;5793;52.238;13.438;2022-07-29T02:41:22;12.80;99.90
11474;DHT22;5793;52.238;13.438;2022-07-29T02:43:54;12.80;99.90
11474;DHT22;5793;52.238;13.438;2022-07-29T02:46:29;12.80;99.90
11474;DHT22;5793;52.238;13.438;2022-07-29T02:49:02;12.80;99.90
11474;DHT22;5793;52.238;13.438;2022-07-29T02:51:40;12.80;99.90
11474;DHT22;5793;52.238;13.438;2022-07-29T02:54:14;12.70;99.90
11474;DHT22;5793;52.238;13.438;2022-07-29T02:56:45;12.70;99.90
11474;DHT22;5793;52.238;13.438;2022-07-29T02:59:15;12.70;99.90
11474;DHT22;5793;52.238;13.438;2022-07-29T03:01:47;12.70;99.90
11474;DHT22;5793;52.238;13.438;2022-07-29T03:04:17;12.80;99.90
11474;DHT22;5793;52.238;13.438;2022-07-29T03:06:47;12.80;99.90
11474;DHT22;5793;52.238;13.438;2022-07-29T03:09:16;12.90;99.90
11474;DHT22;5793;52.238;13.438;2022-07-29T03:11:45;12.80;99.90
11474;DHT22;5793;52.238;13.438;2022-07-29T03:14:16;12.90;99.90
11474;DHT22;5793;52.238;13.438;2022-07-29T03:16:48;12.90;99.90
11474;DHT22;5793;52.238;13.438;2022-07-29T03:19:16;12.80;99.90
11474;DHT22;5793;52.238;13.438;2022-07-29T03:21:44;12.80;99.90
11474;DHT22;5793;52.238;13.438;2022-07-29T03:24:27;12.80;99.90
11474;DHT22;5793;52.238;13.438;2022-07-29T03:26:56;12.90;99.90
11474;DHT22;5793;52.238;13.438;2022-07-29T03:29:25;12.90;99.90
11474;DHT22;5793;52.238;13.438;2022-07-29T03:32:02;13.00;99.90
11474;DHT22;5793;52.238;13.438;2022-07-29T03:34:35;13.00;99.90
11474;DHT22;5793;52.238;13.438;2022-07-29T03:37:03;13.00;99.90
11474;DHT22;5793;52.238;13.438;2022-07-29T03:39:35;13.00;99.90
11474;DHT22;5793;52.238;13.438;2022-07-29T03:42:04;13.00;99.90
11474;DHT22;5793;52.238;13.438;2022-07-29T03:44:34;13.10;99.90
11474;DHT22;5793;52.238;13.438;2022-07-29T03:47:06;13.20;99.90
11474;DHT22;5793;52.238;13.438;2022-07-29T03:49:36;13.20;99.90
11474;DHT22;5793;52.238;13.438;2022-07-29T03:52:05;13.30;99.90
11474;DHT22;5793;52.238;13.438;2022-07-29T03:54:34;13.20;99.90
11474;DHT22;5793;52.238;13.438;2022-07-29T03:57:03;13.30;99.90
11474;DHT22;5793;52.238;13.438;2022-07-29T03:59:33;13.50;99.90
11474;DHT22;5793;52.238;13.438;2022-07-29T04:02:03;13.50;99.90
11474;DHT22;5793;52.238;13.438;2022-07-29T04:04:33;13.50;99.90
11474;DHT22;5793;52.238;13.438;2022-07-29T04:07:02;13.60;99.90
11474;DHT22;5793;52.238;13.438;2022-07-29T04:09:31;13.60;99.90
11474;DHT22;5793;52.238;13.438;2022-07-29T04:11:59;13.70;99.90
11474;DHT22;5793;52.238;13.438;2022-07-29T04:14:30;13.70;99.90
11474;DHT22;5793;52.238;13.438;2022-07-29T04:16:57;13.80;99.90
11474;DHT22;5793;52.238;13.438;2022-07-29T04:19:25;13.90;99.90
11474;DHT22;5793;52.238;13.438;2022-07-29T04:21:54;13.90;99.90
11474;DHT22;5793;52.238;13.438;2022-07-29T04:24:22;14.00;99.90
11474;DHT22;5793;52.238;13.438;2022-07-29T04:26:50;14.10;99.90
11474;DHT22;5793;52.238;13.438;2022-07-29T04:29:18;14.20;99.90
11474;DHT22;5793;52.238;13.438;2022-07-29T04:31:46;14.20;99.90
11474;DHT22;5793;52.238;13.438;2022-07-29T04:34:14;14.30;99.90
11474;DHT22;5793;52.238;13.438;2022-07-29T04:36:42;14.30;99.90
11474;DHT22;5793;52.238;13.438;2022-07-29T04:39:11;14.40;99.90
11474;DHT22;5793;52.238;13.438;2022-07-29T04:41:44;14.40;99.90
11474;DHT22;5793;52.238;13.438;2022-07-29T04:44:13;14.50;99.90
11474;DHT22;5793;52.238;13.438;2022-07-29T04:46:42;14.60;99.90
11474;DHT22;5793;52.238;13.438;2022-07-29T04:49:11;14.60;99.90
11474;DHT22;5793;52.238;13.438;2022-07-29T04:51:39;14.60;99.90
11474;DHT22;5793;52.238;13.438;2022-07-29T04:54:07;14.60;99.90
11474;DHT22;5793;52.238;13.438;2022-07-29T04:56:36;14.70;99.90
11474;DHT22;5793;52.238;13.438;2022-07-29T04:59:04;14.80;99.90
11474;DHT22;5793;52.238;13.438;2022-07-29T05:01:32;14.80;99.90
11474;DHT22;5793;52.238;13.438;2022-07-29T05:03:59;14.80;99.90
11474;DHT22;5793;52.238;13.438;2022-07-29T05:06:29;14.80;99.90
11474;DHT22;5793;52.238;13.438;2022-07-29T05:08:56;14.90;99.90
11474;DHT22;5793;52.238;13.438;2022-07-29T05:11:24;15.00;99.90
11474;DHT22;5793;52.238;13.438;2022-07-29T05:13:57;15.00;99.90
11474;DHT22;5793;52.238;13.438;2022-07-29T05:16:25;15.00;99.90
11474;DHT22;5793;52.238;13.438;2022-07-29T05:18:53;15.00;99.90
11474;DHT22;5793;52.238;13.438;2022-07-29T05:21:21;15.00;99.90
11474;DHT22;5793;52.238;13.438;2022-07-29T05:23:49;15.10;99.90
11474;DHT22;5793;52.238;13.438;2022-07-29T05:26:17;15.10;99.90
11474;DHT22;5793;52.238;13.438;2022-07-29T05:28:44;15.30;99.90
11474;DHT22;5793;52.238;13.438;2022-07-29T05:31:13;15.30;99.90
11474;DHT22;5793;52.238;13.438;2022-07-29T05:33:42;15.50;99.90
11474;DHT22;5793;52.238;13.438;2022-07-29T05:36:12;15.60;99.90
11474;DHT22;5793;52.238;13.438;2022-07-29T05:38:40;15.80;99.90
11474;DHT22;5793;52.238;13.438;2022-07-29T05:41:07;15.90;99.90
11474;DHT22;5793;52.238;13.438;2022-07-29T05:43:35;15.90;99.90
11474;DHT22;5793;52.238;13.438;2022-07-29T05:46:03;16.10;99.90
11474;DHT22;5793;52.238;13.438;2022-07-29T05:48:32;16.20;99.90
11474;DHT22;5793;52.238;13.438;2022-07-29T05:51:00;16.40;99.90
11474;DHT22;5793;52.238;13.438;2022-07-29T05:53:28;16.50;99.90
11474;DHT22;5793;52.238;13.438;2022-07-29T05:55:56;16.70;99.90
11474;DHT22;5793;52.238;13.438;2022-07-29T05:58:24;16.90;99.90
11474;DHT22;5793;52.238;13.438;2022-07-29T06:00:51;16.90;99.90
11474;DHT22;5793;52.238;13.438;2022-07-29T06:03:19;17.00;99.90
11474;DHT22;5793;52.238;13.438;2022-07-29T06:05:48;17.10;99.90
11474;DHT22;5793;52.238;13.438;2022-07-29T06:08:16;17.30;99.90
11474;DHT22;5793;52.238;13.438;2022-07-29T06:10:44;17.50;99.90
11474;DHT22;5793;52.238;13.438;2022-07-29T06:13:13;17.80;99.90
11474;DHT22;5793;52.238;13.438;2022-07-29T06:15:42;18.10;99.90
11474;DHT22;5793;52.238;13.438;2022-07-29T06:18:12;18.40;99.90
11474;DHT22;5793;52.238;13.438;2022-07-29T06:20:40;18.40;99.90
11474;DHT22;5793;52.238;13.438;2022-07-29T06:23:09;18.40;99.90
11474;DHT22;5793;52.238;13.438;2022-07-29T06:25:37;18.50;99.90
11474;DHT22;5793;52.238;13.438;2022-07-29T06:28:06;18.40;99.90
11474;DHT22;5793;52.238;13.438;2022-07-29T06:30:34;18.30;99.90
11474;DHT22;5793;52.238;13.438;2022-07-29T06:33:03;18.20;99.90
11474;DHT22;5793;52.238;13.438;2022-07-29T06:35:33;18.30;99.90
11474;DHT22;5793;52.238;13.438;2022-07-29T06:38:09;18.30;99.90
11474;DHT22;5793;52.238;13.438;2022-07-29T06:40:57;18.40;99.90
11474;DHT22;5793;52.238;13.438;2022-07-29T06:43:31;18.60;99.90
11474;DHT22;5793;52.238;13.438;2022-07-29T06:46:01;18.70;99.90
11474;DHT22;5793;52.238;13.438;2022-07-29T06:48:30;18.90;99.90
11474;DHT22;5793;52.238;13.438;2022-07-29T06:50:58;19.00;99.90
11474;DHT22;5793;52.238;13.438;2022-07-29T06:53:29;19.10;99.90
11474;DHT22;5793;52.238;13.438;2022-07-29T06:55:58;19.30;99.90
11474;DHT22;5793;52.238;13.438;2022-07-29T06:58:27;19.40;99.90
11474;DHT22;5793;52.238;13.438;2022-07-29T07:00:56;19.70;99.90
11474;DHT22;5793;52.238;13.438;2022-07-29T07:03:24;19.80;99.90
11474;DHT22;5793;52.238;13.438;2022-07-29T07:05:52;20.00;99.90
11474;DHT22;5793;52.238;13.438;2022-07-29T07:08:21;20.20;99.90
11474;DHT22;5793;52.238;13.438;2022-07-29T07:10:51;20.40;99.90
11474;DHT22;5793;52.238;13.438;2022-07-29T07:13:20;20.70;99.90
11474;DHT22;5793;52.238;13.438;2022-07-29T07:15:48;21.00;99.90
11474;DHT22;5793;52.238;13.438;2022-07-29T07:18:17;21.20;99.90
11474;DHT22;5793;52.238;13.438;2022-07-29T07:20:45;21.60;99.90
11474;DHT22;5793;52.238;13.438;2022-07-29T07:23:14;21.90;99.90
11474;DHT22;5793;52.238;13.438;2022-07-29T07:25:41;22.10;99.90
11474;DHT22;5793;52.238;13.438;2022-07-29T07:28:10;22.40;99.90
11474;DHT22;5793;52.238;13.438;2022-07-29T07:30:39;22.50;99.90
11474;DHT22;5793;52.238;13.438;2022-07-29T07:33:07;22.60;99.90
11474;DHT22;5793;52.238;13.438;2022-07-29T07:35:35;22.80;99.90
11474;DHT22;5793;52.238;13.438;2022-07-29T07:38:02;23.00;99.90
11474;DHT22;5793;52.238;13.438;2022-07-29T07:40:32;23.20;99.90
11474;DHT22;5793;52.238;13.438;2022-07-29T07:43:00;23.40;99.90
11474;DHT22;5793;52.238;13.438;2022-07-29T07:45:29;23.50;99.90
11474;DHT22;5793;52.238;13.438;2022-07-29T07:47:59;23.50;99.90
11474;DHT22;5793;52.238;13.438;2022-07-29T07:50:27;23.70;99.90
11474;DHT22;5793;52.238;13.438;2022-07-29T07:52:55;23.90;99.90
11474;DHT22;5793;52.238;13.438;2022-07-29T07:55:25;24.00;99.90
11474;DHT22;5793;52.238;13.438;2022-07-29T07:57:53;24.20;99.90
11474;DHT22;5793;52.238;13.438;2022-07-29T08:00:21;24.40;99.90
11474;DHT22;5793;52.238;13.438;2022-07-29T08:02:51;24.40;99.90
11474;DHT22;5793;52.238;13.438;2022-07-29T08:05:18;24.50;99.90
11474;DHT22;5793;52.238;13.438;2022-07-29T08:07:46;24.50;99.90
11474;DHT22;5793;52.238;13.438;2022-07-29T08:10:15;24.30;99.90
11474;DHT22;5793;52.238;13.438;2022-07-29T08:13:04;24.40;99.90
11474;DHT22;5793;52.238;13.438;2022-07-29T08:15:33;24.70;99.90
11474;DHT22;5793;52.238;13.438;2022-07-29T08:18:02;24.80;99.90
11474;DHT22;5793;52.238;13.438;2022-07-29T08:20:34;24.90;99.90
11474;DHT22;5793;52.238;13.438;2022-07-29T08:23:06;24.80;99.90
11474;DHT22;5793;52.238;13.438;2022-07-29T08:25:35;24.70;99.90
11474;DHT22;5793;52.238;13.438;2022-07-29T08:28:05;24.60;99.90
11474;DHT22;5793;52.238;13.438;2022-07-29T08:30:34;24.50;99.90
11474;DHT22;5793;52.238;13.438;2022-07-29T08:33:03;24.30;99.90
11474;DHT22;5793;52.238;13.438;2022-07-29T08:35:31;24.10;99.90
11474;DHT22;5793;52.238;13.438;2022-07-29T08:38:02;23.90;99.90
11474;DHT22;5793;52.238;13.438;2022-07-29T08:40:30;23.80;99.90
11474;DHT22;5793;52.238;13.438;2022-07-29T08:42:59;23.70;99.90
11474;DHT22;5793;52.238;13.438;2022-07-29T08:45:28;23.60;99.90
11474;DHT22;5793;52.238;13.438;2022-07-29T08:47:56;23.60;99.90
11474;DHT22;5793;52.238;13.438;2022-07-29T08:50:26;23.80;99.90
11474;DHT22;5793;52.238;13.438;2022-07-29T08:52:54;24.10;99.90
11474;DHT22;5793;52.238;13.438;2022-07-29T08:55:25;24.40;99.90
11474;DHT22;5793;52.238;13.438;2022-07-29T08:57:54;24.70;99.90
11474;DHT22;5793;52.238;13.438;2022-07-29T09:00:24;25.10;99.90
11474;DHT22;5793;52.238;13.438;2022-07-29T09:02:57;26.20;99.90
11474;DHT22;5793;52.238;13.438;2022-07-29T09:05:27;27.20;97.50
11474;DHT22;5793;52.238;13.438;2022-07-29T09:07:56;27.60;94.90
11474;DHT22;5793;52.238;13.438;2022-07-29T09:10:24;28.10;96.20
11474;DHT22;5793;52.238;13.438;2022-07-29T09:12:52;28.20;93.30
11474;DHT22;5793;52.238;13.438;2022-07-29T09:15:21;28.20;90.60
11474;DHT22;5793;52.238;13.438;2022-07-29T09:17:49;28.70;83.10
11474;DHT22;5793;52.238;13.438;2022-07-29T09:20:18;29.80;75.80
11474;DHT22;5793;52.238;13.438;2022-07-29T09:22:48;31.30;71.70
11474;DHT22;5793;52.238;13.438;2022-07-29T09:25:32;32.30;64.60
11474;DHT22;5793;52.238;13.438;2022-07-29T09:28:05;33.70;59.80
11474;DHT22;5793;52.238;13.438;2022-07-29T09:30:33;34.30;56.10
11474;DHT22;5793;52.238;13.438;2022-07-29T09:33:02;34.80;53.70
11474;DHT22;5793;52.238;13.438;2022-07-29T09:35:31;35.30;52.10
11474;DHT22;5793;52.238;13.438;2022-07-29T09:38:10;35.80;49.50
11474;DHT22;5793;52.238;13.438;2022-07-29T09:40:38;37.10;48.60
11474;DHT22;5793;52.238;13.438;2022-07-29T09:43:10;37.40;46.70
11474;DHT22;5793;52.238;13.438;2022-07-29T09:45:39;36.50;47.40
11474;DHT22;5793;52.238;13.438;2022-07-29T09:48:14;35.10;48.20
11474;DHT22;5793;52.238;13.438;2022-07-29T09:50:43;34.00;49.20
11474;DHT22;5793;52.238;13.438;2022-07-29T09:53:29;32.70;50.70
11474;DHT22;5793;52.238;13.438;2022-07-29T09:55:58;31.70;53.30
11474;DHT22;5793;52.238;13.438;2022-07-29T09:58:26;31.20;55.00
11474;DHT22;5793;52.238;13.438;2022-07-29T10:00:55;31.10;56.40
11474;DHT22;5793;52.238;13.438;2022-07-29T10:03:23;30.90;55.00
11474;DHT22;5793;52.238;13.438;2022-07-29T10:06:05;30.90;55.00
11474;DHT22;5793;52.238;13.438;2022-07-29T10:08:35;30.80;54.80
11474;DHT22;5793;52.238;13.438;2022-07-29T10:11:10;30.60;56.50
11474;DHT22;5793;52.238;13.438;2022-07-29T10:13:38;30.10;55.80
11474;DHT22;5793;52.238;13.438;2022-07-29T10:16:08;29.60;57.50
11474;DHT22;5793;52.238;13.438;2022-07-29T10:18:38;29.60;57.30
11474;DHT22;5793;52.238;13.438;2022-07-29T10:21:06;29.50;58.90
11474;DHT22;5793;52.238;13.438;2022-07-29T10:23:35;29.60;58.90
11474;DHT22;5793;52.238;13.438;2022-07-29T10:26:12;29.60;59.60
11474;DHT22;5793;52.238;13.438;2022-07-29T10:28:41;29.80;61.20
11474;DHT22;5793;52.238;13.438;2022-07-29T10:31:13;29.80;60.30
11474;DHT22;5793;52.238;13.438;2022-07-29T10:33:51;30.50;59.10
11474;DHT22;5793;52.238;13.438;2022-07-29T10:36:38;31.00;59.30
11474;DHT22;5793;52.238;13.438;2022-07-29T10:39:22;31.30;58.00
11474;DHT22;5793;52.238;13.438;2022-07-29T10:42:15;32.80;56.30
11474;DHT22;5793;52.238;13.438;2022-07-29T10:44:46;34.00;52.80
11474;DHT22;5793;52.238;13.438;2022-07-29T10:47:21;35.60;50.30
11474;DHT22;5793;52.238;13.438;2022-07-29T10:49:56;36.40;49.70
11474;DHT22;5793;52.238;13.438;2022-07-29T10:52:54;36.60;48.80
11474;DHT22;5793;52.238;13.438;2022-07-29T10:55:42;36.80;49.20
11474;DHT22;5793;52.238;13.438;2022-07-29T10:58:15;36.20;50.80
11474;DHT22;5793;52.238;13.438;2022-07-29T11:00:45;34.70;52.00
11474;DHT22;5793;52.238;13.438;2022-07-29T11:03:43;33.00;54.20
11474;DHT22;5793;52.238;13.438;2022-07-29T11:09:33;30.20;57.60
11474;DHT22;5793;52.238;13.438;2022-07-29T11:15:15;29.30;61.70
11474;DHT22;5793;52.238;13.438;2022-07-29T11:18:05;29.30;60.80
11474;DHT22;5793;52.238;13.438;2022-07-29T11:20:42;29.20;60.80
11474;DHT22;5793;52.238;13.438;2022-07-29T11:23:22;29.30;62.30
11474;DHT22;5793;52.238;13.438;2022-07-29T11:26:16;29.30;62.60
11474;DHT22;5793;52.238;13.438;2022-07-29T11:28:53;29.40;62.60
11474;DHT22;5793;52.238;13.438;2022-07-29T11:31:36;29.60;61.10
11474;DHT22;5793;52.238;13.438;2022-07-29T11:34:22;29.80;60.10
11474;DHT22;5793;52.238;13.438;2022-07-29T11:37:14;29.80;61.20
11474;DHT22;5793;52.238;13.438;2022-07-29T11:39:44;29.90;60.70
11474;DHT22;5793;52.238;13.438;2022-07-29T11:45:24;30.20;59.50
11474;DHT22;5793;52.238;13.438;2022-07-29T11:48:16;30.30;60.50
11474;DHT22;5793;52.238;13.438;2022-07-29T11:50:56;30.00;60.50
11474;DHT22;5793;52.238;13.438;2022-07-29T11:53:24;30.00;59.20
11474;DHT22;5793;52.238;13.438;2022-07-29T11:55:59;30.00;60.50
11474;DHT22;5793;52.238;13.438;2022-07-29T11:58:30;29.80;60.70
11474;DHT22;5793;52.238;13.438;2022-07-29T12:00:59;29.80;59.00
11474;DHT22;5793;52.238;13.438;2022-07-29T12:03:31;30.10;60.20
11474;DHT22;5793;52.238;13.438;2022-07-29T12:06:03;30.30;59.70
11474;DHT22;5793;52.238;13.438;2022-07-29T12:08:40;30.20;58.80
11474;DHT22;5793;52.238;13.438;2022-07-29T12:11:16;30.20;59.30
11474;DHT22;5793;52.238;13.438;2022-07-29T12:13:48;30.20;59.30
11474;DHT22;5793;52.238;13.438;2022-07-29T12:16:18;30.40;60.30
11474;DHT22;5793;52.238;13.438;2022-07-29T12:18:58;30.70;59.30
11474;DHT22;5793;52.238;13.438;2022-07-29T12:21:28;30.90;58.30
11474;DHT22;5793;52.238;13.438;2022-07-29T12:23:57;30.90;57.10
11474;DHT22;5793;52.238;13.438;2022-07-29T12:26:35;31.00;57.10
11474;DHT22;5793;52.238;13.438;2022-07-29T12:29:03;31.10;57.40
11474;DHT22;5793;52.238;13.438;2022-07-29T12:31:40;31.10;58.30
11474;DHT22;5793;52.238;13.438;2022-07-29T12:34:12;31.10;57.80
11474;DHT22;5793;52.238;13.438;2022-07-29T12:36:41;31.10;58.60
11474;DHT22;5793;52.238;13.438;2022-07-29T12:39:09;31.20;57.50
11474;DHT22;5793;52.238;13.438;2022-07-29T12:41:38;31.30;56.90
11474;DHT22;5793;52.238;13.438;2022-07-29T12:44:06;31.20;57.50
11474;DHT22;5793;52.238;13.438;2022-07-29T12:46:34;31.00;56.70
11474;DHT22;5793;52.238;13.438;2022-07-29T12:49:03;30.60;58.30
11474;DHT22;5793;52.238;13.438;2022-07-29T12:51:33;30.20;56.20
11474;DHT22;5793;52.238;13.438;2022-07-29T12:54:03;29.70;58.40
11474;DHT22;5793;52.238;13.438;2022-07-29T12:56:32;29.40;58.00
11474;DHT22;5793;52.238;13.438;2022-07-29T12:59:14;29.20;57.80
11474;DHT22;5793;52.238;13.438;2022-07-29T13:01:43;28.90;59.90
11474;DHT22;5793;52.238;13.438;2022-07-29T13:04:24;28.80;59.30
11474;DHT22;5793;52.238;13.438;2022-07-29T13:06:58;28.80;59.60
11474;DHT22;5793;52.238;13.438;2022-07-29T13:09:37;29.10;59.20
11474;DHT22;5793;52.238;13.438;2022-07-29T13:12:06;29.60;58.40
11474;DHT22;5793;52.238;13.438;2022-07-29T13:14:36;29.90;57.90
11474;DHT22;5793;52.238;13.438;2022-07-29T13:17:05;30.10;57.70
11474;DHT22;5793;52.238;13.438;2022-07-29T13:19:36;30.30;57.60
11474;DHT22;5793;52.238;13.438;2022-07-29T13:22:06;30.20;58.50
11474;DHT22;5793;52.238;13.438;2022-07-29T13:24:45;30.30;59.10
11474;DHT22;5793;52.238;13.438;2022-07-29T13:27:14;30.30;58.40
11474;DHT22;5793;52.238;13.438;2022-07-29T13:29:41;30.30;58.20
11474;DHT22;5793;52.238;13.438;2022-07-29T13:32:11;30.30;58.80
11474;DHT22;5793;52.238;13.438;2022-07-29T13:34:40;30.30;58.30
11474;DHT22;5793;52.238;13.438;2022-07-29T13:37:08;30.20;58.10
11474;DHT22;5793;52.238;13.438;2022-07-29T13:39:36;30.10;57.30
11474;DHT22;5793;52.238;13.438;2022-07-29T13:42:05;29.90;57.20
11474;DHT22;5793;52.238;13.438;2022-07-29T13:44:36;29.80;58.60
11474;DHT22;5793;52.238;13.438;2022-07-29T13:47:04;29.70;58.50
11474;DHT22;5793;52.238;13.438;2022-07-29T13:49:32;29.80;58.00
11474;DHT22;5793;52.238;13.438;2022-07-29T13:52:02;29.80;58.90
11474;DHT22;5793;52.238;13.438;2022-07-29T13:54:33;29.80;58.50
11474;DHT22;5793;52.238;13.438;2022-07-29T13:57:08;29.80;59.00
11474;DHT22;5793;52.238;13.438;2022-07-29T13:59:37;29.80;58.50
11474;DHT22;5793;52.238;13.438;2022-07-29T14:02:05;29.80;58.50
11474;DHT22;5793;52.238;13.438;2022-07-29T14:04:33;29.70;57.80
11474;DHT22;5793;52.238;13.438;2022-07-29T14:07:06;29.60;58.80
11474;DHT22;5793;52.238;13.438;2022-07-29T14:09:34;29.60;58.20
11474;DHT22;5793;52.238;13.438;2022-07-29T14:12:08;29.70;59.30
11474;DHT22;5793;52.238;13.438;2022-07-29T14:14:36;29.60;59.50
11474;DHT22;5793;52.238;13.438;2022-07-29T14:17:06;29.70;61.20
11474;DHT22;5793;52.238;13.438;2022-07-29T14:19:35;29.60;58.50
11474;DHT22;5793;52.238;13.438;2022-07-29T14:22:07;29.50;60.70
11474;DHT22;5793;52.238;13.438;2022-07-29T14:24:37;29.50;58.30
11474;DHT22;5793;52.238;13.438;2022-07-29T14:27:05;29.50;59.40
11474;DHT22;5793;52.238;13.438;2022-07-29T14:29:33;29.60;58.40
11474;DHT22;5793;52.238;13.438;2022-07-29T14:32:05;29.50;58.70
11474;DHT22;5793;52.238;13.438;2022-07-29T14:34:33;29.50;59.10
11474;DHT22;5793;52.238;13.438;2022-07-29T14:37:01;29.50;59.10
11474;DHT22;5793;52.238;13.438;2022-07-29T14:39:33;29.50;59.10
11474;DHT22;5793;52.238;13.438;2022-07-29T14:42:08;29.40;59.50
11474;DHT22;5793;52.238;13.438;2022-07-29T14:44:38;29.50;59.20
11474;DHT22;5793;52.238;13.438;2022-07-29T14:47:06;29.40;58.90
11474;DHT22;5793;52.238;13.438;2022-07-29T14:49:34;29.20;59.50
11474;DHT22;5793;52.238;13.438;2022-07-29T14:52:02;29.00;59.00
11474;DHT22;5793;52.238;13.438;2022-07-29T14:54:30;28.90;60.00
11474;DHT22;5793;52.238;13.438;2022-07-29T14:57:00;28.70;59.40
11474;DHT22;5793;52.238;13.438;2022-07-29T14:59:27;28.60;59.60
11474;DHT22;5793;52.238;13.438;2022-07-29T15:01:55;28.60;60.20
11474;DHT22;5793;52.238;13.438;2022-07-29T15:04:24;28.60;59.00
11474;DHT22;5793;52.238;13.438;2022-07-29T15:06:51;28.70;59.50
11474;DHT22;5793;52.238;13.438;2022-07-29T15:09:19;28.80;59.30
11474;DHT22;5793;52.238;13.438;2022-07-29T15:11:47;28.90;59.20
11474;DHT22;5793;52.238;13.438;2022-07-29T15:14:16;29.00;59.20
11474;DHT22;5793;52.238;13.438;2022-07-29T15:16:44;29.10;58.00
11474;DHT22;5793;52.238;13.438;2022-07-29T15:19:14;29.10;58.90
11474;DHT22;5793;52.238;13.438;2022-07-29T15:21:41;29.10;58.50
11474;DHT22;5793;52.238;13.438;2022-07-29T15:24:14;29.10;57.70
11474;DHT22;5793;52.238;13.438;2022-07-29T15:26:43;29.10;58.00
11474;DHT22;5793;52.238;13.438;2022-07-29T15:29:10;29.10;57.90
11474;DHT22;5793;52.238;13.438;2022-07-29T15:31:40;29.20;58.40
11474;DHT22;5793;52.238;13.438;2022-07-29T15:34:08;29.20;59.10
11474;DHT22;5793;52.238;13.438;2022-07-29T15:36:35;29.10;58.70
11474;DHT22;5793;52.238;13.438;2022-07-29T15:39:20;29.10;58.00
11474;DHT22;5793;52.238;13.438;2022-07-29T15:41:49;29.20;58.70
11474;DHT22;5793;52.238;13.438;2022-07-29T15:44:17;29.20;58.70
11474;DHT22;5793;52.238;13.438;2022-07-29T15:46:48;29.20;58.90
11474;DHT22;5793;52.238;13.438;2022-07-29T15:49:32;29.10;59.60
11474;DHT22;5793;52.238;13.438;2022-07-29T15:52:16;29.00;59.00
11474;DHT22;5793;52.238;13.438;2022-07-29T15:54:52;29.00;58.70
11474;DHT22;5793;52.238;13.438;2022-07-29T15:57:20;28.90;60.50
11474;DHT22;5793;52.238;13.438;2022-07-29T15:59:47;28.90;61.40
11474;DHT22;5793;52.238;13.438;2022-07-29T16:02:16;28.80;59.10
11474;DHT22;5793;52.238;13.438;2022-07-29T16:04:44;28.80;59.70